sensor_id;sensor_type;location;lat;lon;timestamp;P1;durP1;ratioP1;P2;durP2;ratioP2
49934;SDS011;39898;41.762;26.200;2023-09-07T00:01:34;23.38;;;12.48;;
49934;SDS011;39898;41.762;26.200;2023-09-07T00:04:00;19.42;;;11.13;;
49934;SDS011;39898;41.762;26.200;2023-09-07T00:06:30;17.92;;;11.38;;
49934;SDS011;39898;41.762;26.200;2023-09-07T00:08:56;19.17;;;11.35;;
49934;SDS011;39898;41.762;26.200;2023-09-07T00:11:23;24.38;;;12.05;;
49934;SDS011;39898;41.762;26.200;2023-09-07T00:13:50;19.30;;;11.02;;
49934;SDS011;39898;41.762;26.200;2023-09-07T00:16:17;17.00;;;12.00;;
49934;SDS011;39898;41.762;26.200;2023-09-07T00:18:44;21.60;;;11.57;;
49934;SDS011;39898;41.762;26.200;2023-09-07T00:21:11;19.45;;;11.13;;
49934;SDS011;39898;41.762;26.200;2023-09-07T00:23:39;23.45;;;11.05;;
49934;SDS011;39898;41.762;26.200;2023-09-07T00:28:32;24.27;;;11.45;;
49934;SDS011;39898;41.762;26.200;2023-09-07T00:30:59;20.17;;;11.27;;
49934;SDS011;39898;41.762;26.200;2023-09-07T00:33:26;19.95;;;11.50;;
49934;SDS011;39898;41.762;26.200;2023-09-07T00:35:53;28.33;;;11.68;;
49934;SDS011;39898;41.762;26.200;2023-09-07T00:38:19;20.88;;;11.52;;
49934;SDS011;39898;41.762;26.200;2023-09-07T00:40:46;18.15;;;11.60;;
49934;SDS011;39898;41.762;26.200;2023-09-07T00:43:13;21.98;;;11.57;;
49934;SDS011;39898;41.762;26.200;2023-09-07T00:45:40;22.52;;;11.60;;
49934;SDS011;39898;41.762;26.200;2023-09-07T00:48:07;22.13;;;10.67;;
49934;SDS011;39898;41.762;26.200;2023-09-07T00:50:34;16.85;;;11.02;;
49934;SDS011;39898;41.762;26.200;2023-09-07T00:53:01;21.92;;;10.93;;
49934;SDS011;39898;41.762;26.200;2023-09-07T00:55:29;17.75;;;10.98;;
49934;SDS011;39898;41.762;26.200;2023-09-07T00:57:59;17.45;;;11.40;;
49934;SDS011;39898;41.762;26.200;2023-09-07T01:00:26;22.00;;;12.02;;
49934;SDS011;39898;41.762;26.200;2023-09-07T01:02:53;19.33;;;10.88;;
49934;SDS011;39898;41.762;26.200;2023-09-07T01:05:21;19.55;;;11.18;;
49934;SDS011;39898;41.762;26.200;2023-09-07T01:07:53;15.82;;;11.23;;
49934;SDS011;39898;41.762;26.200;2023-09-07T01:10:20;21.55;;;11.70;;
49934;SDS011;39898;41.762;26.200;2023-09-07T01:15:15;17.77;;;12.68;;
49934;SDS011;39898;41.762;26.200;2023-09-07T01:17:42;18.70;;;11.88;;
49934;SDS011;39898;41.762;26.200;2023-09-07T01:20:09;19.23;;;11.88;;
49934;SDS011;39898;41.762;26.200;2023-09-07T01:22:37;24.20;;;12.50;;
49934;SDS011;39898;41.762;26.200;2023-09-07T01:25:05;20.98;;;11.10;;
49934;SDS011;39898;41.762;26.200;2023-09-07T01:29:59;18.67;;;10.98;;
49934;SDS011;39898;41.762;26.200;2023-09-07T01:32:27;20.90;;;12.02;;
49934;SDS011;39898;41.762;26.200;2023-09-07T01:34:57;23.83;;;12.40;;
49934;SDS011;39898;41.762;26.200;2023-09-07T01:37:24;20.23;;;12.05;;
49934;SDS011;39898;41.762;26.200;2023-09-07T01:39:51;20.70;;;12.00;;
49934;SDS011;39898;41.762;26.200;2023-09-07T01:42:18;32.45;;;12.73;;
49934;SDS011;39898;41.762;26.200;2023-09-07T01:44:44;18.92;;;12.77;;
49934;SDS011;39898;41.762;26.200;2023-09-07T01:47:11;24.00;;;12.98;;
49934;SDS011;39898;41.762;26.200;2023-09-07T01:49:38;20.70;;;12.98;;
49934;SDS011;39898;41.762;26.200;2023-09-07T01:52:05;20.10;;;12.52;;
49934;SDS011;39898;41.762;26.200;2023-09-07T01:54:31;25.52;;;12.65;;
49934;SDS011;39898;41.762;26.200;2023-09-07T01:56:58;27.05;;;12.23;;
49934;SDS011;39898;41.762;26.200;2023-09-07T01:59:25;22.55;;;12.98;;
49934;SDS011;39898;41.762;26.200;2023-09-07T02:01:52;25.33;;;12.93;;
49934;SDS011;39898;41.762;26.200;2023-09-07T02:04:18;16.77;;;12.80;;
49934;SDS011;39898;41.762;26.200;2023-09-07T02:06:45;23.60;;;12.30;;
49934;SDS011;39898;41.762;26.200;2023-09-07T02:09:12;21.02;;;12.57;;
49934;SDS011;39898;41.762;26.200;2023-09-07T02:11:38;18.05;;;11.95;;
49934;SDS011;39898;41.762;26.200;2023-09-07T02:14:06;18.70;;;11.15;;
49934;SDS011;39898;41.762;26.200;2023-09-07T02:16:33;26.83;;;12.25;;
49934;SDS011;39898;41.762;26.200;2023-09-07T02:19:03;25.38;;;12.15;;
49934;SDS011;39898;41.762;26.200;2023-09-07T02:21:30;23.95;;;12.52;;
49934;SDS011;39898;41.762;26.200;2023-09-07T02:23:57;18.85;;;13.65;;
49934;SDS011;39898;41.762;26.200;2023-09-07T02:26:24;20.17;;;12.80;;
49934;SDS011;39898;41.762;26.200;2023-09-07T02:28:51;19.67;;;13.25;;
49934;SDS011;39898;41.762;26.200;2023-09-07T02:31:17;19.10;;;12.45;;
49934;SDS011;39898;41.762;26.200;2023-09-07T02:33:44;18.83;;;12.75;;
49934;SDS011;39898;41.762;26.200;2023-09-07T02:36:11;20.83;;;11.75;;
49934;SDS011;39898;41.762;26.200;2023-09-07T02:38:37;25.35;;;12.57;;
49934;SDS011;39898;41.762;26.200;2023-09-07T02:41:04;21.45;;;12.02;;
49934;SDS011;39898;41.762;26.200;2023-09-07T02:43:31;20.17;;;12.52;;
49934;SDS011;39898;41.762;26.200;2023-09-07T02:45:58;23.70;;;12.02;;
49934;SDS011;39898;41.762;26.200;2023-09-07T02:48:24;24.95;;;13.65;;
49934;SDS011;39898;41.762;26.200;2023-09-07T02:50:51;20.20;;;13.32;;
49934;SDS011;39898;41.762;26.200;2023-09-07T02:53:18;25.70;;;13.50;;
49934;SDS011;39898;41.762;26.200;2023-09-07T02:55:45;23.67;;;13.05;;
49934;SDS011;39898;41.762;26.200;2023-09-07T02:58:11;26.15;;;12.77;;
49934;SDS011;39898;41.762;26.200;2023-09-07T03:00:42;33.30;;;13.82;;
49934;SDS011;39898;41.762;26.200;2023-09-07T03:03:11;22.05;;;14.35;;
49934;SDS011;39898;41.762;26.200;2023-09-07T03:05:39;26.95;;;14.50;;
49934;SDS011;39898;41.762;26.200;2023-09-07T03:08:06;25.15;;;15.02;;
49934;SDS011;39898;41.762;26.200;2023-09-07T03:10:36;19.60;;;14.48;;
49934;SDS011;39898;41.762;26.200;2023-09-07T03:13:06;21.65;;;13.93;;
49934;SDS011;39898;41.762;26.200;2023-09-07T03:15:33;23.42;;;13.18;;
49934;SDS011;39898;41.762;26.200;2023-09-07T03:18:00;20.48;;;14.70;;
49934;SDS011;39898;41.762;26.200;2023-09-07T03:20:27;19.23;;;12.70;;
49934;SDS011;39898;41.762;26.200;2023-09-07T03:22:54;28.73;;;15.50;;
49934;SDS011;39898;41.762;26.200;2023-09-07T03:25:21;22.90;;;13.70;;
49934;SDS011;39898;41.762;26.200;2023-09-07T03:27:47;16.38;;;12.77;;
49934;SDS011;39898;41.762;26.200;2023-09-07T03:30:14;26.17;;;13.57;;
49934;SDS011;39898;41.762;26.200;2023-09-07T03:32:41;20.77;;;13.23;;
49934;SDS011;39898;41.762;26.200;2023-09-07T03:35:07;32.67;;;13.30;;
49934;SDS011;39898;41.762;26.200;2023-09-07T03:40:03;22.23;;;12.85;;
49934;SDS011;39898;41.762;26.200;2023-09-07T03:42:31;23.65;;;13.82;;
49934;SDS011;39898;41.762;26.200;2023-09-07T03:44:59;26.75;;;13.93;;
49934;SDS011;39898;41.762;26.200;2023-09-07T03:47:26;25.75;;;13.77;;
49934;SDS011;39898;41.762;26.200;2023-09-07T03:49:56;32.92;;;14.73;;
49934;SDS011;39898;41.762;26.200;2023-09-07T03:52:25;25.02;;;13.32;;
49934;SDS011;39898;41.762;26.200;2023-09-07T03:54:56;28.42;;;14.18;;
49934;SDS011;39898;41.762;26.200;2023-09-07T03:57:23;23.20;;;13.82;;
49934;SDS011;39898;41.762;26.200;2023-09-07T03:59:50;24.98;;;13.00;;
49934;SDS011;39898;41.762;26.200;2023-09-07T04:02:16;25.15;;;13.13;;
49934;SDS011;39898;41.762;26.200;2023-09-07T04:04:50;16.13;;;12.95;;
49934;SDS011;39898;41.762;26.200;2023-09-07T04:07:17;24.95;;;13.18;;
49934;SDS011;39898;41.762;26.200;2023-09-07T04:09:44;23.20;;;13.23;;
49934;SDS011;39898;41.762;26.200;2023-09-07T04:12:11;20.67;;;13.20;;
49934;SDS011;39898;41.762;26.200;2023-09-07T04:14:38;21.25;;;12.63;;
49934;SDS011;39898;41.762;26.200;2023-09-07T04:17:05;22.45;;;12.27;;
49934;SDS011;39898;41.762;26.200;2023-09-07T04:19:31;25.88;;;12.30;;
49934;SDS011;39898;41.762;26.200;2023-09-07T04:21:58;22.58;;;12.07;;
49934;SDS011;39898;41.762;26.200;2023-09-07T04:24:24;24.95;;;12.20;;
49934;SDS011;39898;41.762;26.200;2023-09-07T04:26:51;24.48;;;11.80;;
49934;SDS011;39898;41.762;26.200;2023-09-07T04:29:18;17.45;;;11.85;;
49934;SDS011;39898;41.762;26.200;2023-09-07T04:31:44;19.05;;;11.82;;
49934;SDS011;39898;41.762;26.200;2023-09-07T04:34:11;19.83;;;12.07;;
49934;SDS011;39898;41.762;26.200;2023-09-07T04:36:38;19.92;;;11.55;;
49934;SDS011;39898;41.762;26.200;2023-09-07T04:39:04;20.98;;;11.65;;
49934;SDS011;39898;41.762;26.200;2023-09-07T04:41:31;20.85;;;11.57;;
49934;SDS011;39898;41.762;26.200;2023-09-07T04:43:58;20.05;;;10.48;;
49934;SDS011;39898;41.762;26.200;2023-09-07T04:46:24;19.33;;;10.55;;
49934;SDS011;39898;41.762;26.200;2023-09-07T04:48:51;20.50;;;11.27;;
49934;SDS011;39898;41.762;26.200;2023-09-07T04:51:18;23.02;;;10.57;;
49934;SDS011;39898;41.762;26.200;2023-09-07T04:53:44;21.23;;;11.23;;
49934;SDS011;39898;41.762;26.200;2023-09-07T04:56:11;16.48;;;10.55;;
49934;SDS011;39898;41.762;26.200;2023-09-07T04:58:37;16.60;;;10.30;;
49934;SDS011;39898;41.762;26.200;2023-09-07T05:01:08;15.98;;;10.07;;
49934;SDS011;39898;41.762;26.200;2023-09-07T05:03:35;20.05;;;10.45;;
49934;SDS011;39898;41.762;26.200;2023-09-07T05:06:03;21.83;;;10.98;;
49934;SDS011;39898;41.762;26.200;2023-09-07T05:08:30;15.05;;;10.35;;
49934;SDS011;39898;41.762;26.200;2023-09-07T05:10:58;17.77;;;10.60;;
49934;SDS011;39898;41.762;26.200;2023-09-07T05:13:25;14.40;;;9.48;;
49934;SDS011;39898;41.762;26.200;2023-09-07T05:15:53;17.85;;;10.57;;
49934;SDS011;39898;41.762;26.200;2023-09-07T05:18:20;15.57;;;10.80;;
49934;SDS011;39898;41.762;26.200;2023-09-07T05:20:47;20.93;;;11.00;;
49934;SDS011;39898;41.762;26.200;2023-09-07T05:23:15;17.48;;;10.02;;
49934;SDS011;39898;41.762;26.200;2023-09-07T05:25:47;21.60;;;9.82;;
49934;SDS011;39898;41.762;26.200;2023-09-07T05:28:14;13.65;;;8.60;;
49934;SDS011;39898;41.762;26.200;2023-09-07T05:30:41;21.10;;;9.27;;
49934;SDS011;39898;41.762;26.200;2023-09-07T05:33:12;16.35;;;8.32;;
49934;SDS011;39898;41.762;26.200;2023-09-07T05:35:39;17.80;;;8.15;;
49934;SDS011;39898;41.762;26.200;2023-09-07T05:38:05;10.77;;;7.85;;
49934;SDS011;39898;41.762;26.200;2023-09-07T05:40:33;15.65;;;9.10;;
49934;SDS011;39898;41.762;26.200;2023-09-07T05:43:00;16.35;;;8.75;;
49934;SDS011;39898;41.762;26.200;2023-09-07T05:45:27;15.23;;;8.43;;
49934;SDS011;39898;41.762;26.200;2023-09-07T05:47:54;14.05;;;7.82;;
49934;SDS011;39898;41.762;26.200;2023-09-07T05:50:20;15.68;;;8.55;;
49934;SDS011;39898;41.762;26.200;2023-09-07T05:52:47;12.75;;;8.02;;
49934;SDS011;39898;41.762;26.200;2023-09-07T05:55:14;10.68;;;7.68;;
49934;SDS011;39898;41.762;26.200;2023-09-07T05:57:41;13.80;;;7.88;;
49934;SDS011;39898;41.762;26.200;2023-09-07T06:00:07;18.73;;;8.40;;
49934;SDS011;39898;41.762;26.200;2023-09-07T06:02:34;15.55;;;8.43;;
49934;SDS011;39898;41.762;26.200;2023-09-07T06:05:02;16.20;;;8.63;;
49934;SDS011;39898;41.762;26.200;2023-09-07T06:07:29;10.13;;;7.63;;
49934;SDS011;39898;41.762;26.200;2023-09-07T06:09:55;16.70;;;8.25;;
49934;SDS011;39898;41.762;26.200;2023-09-07T06:12:25;11.18;;;8.13;;
49934;SDS011;39898;41.762;26.200;2023-09-07T06:14:51;11.00;;;7.50;;
49934;SDS011;39898;41.762;26.200;2023-09-07T06:17:18;21.02;;;7.28;;
49934;SDS011;39898;41.762;26.200;2023-09-07T06:19:45;15.52;;;7.50;;
49934;SDS011;39898;41.762;26.200;2023-09-07T06:22:12;12.95;;;7.35;;
49934;SDS011;39898;41.762;26.200;2023-09-07T06:24:39;15.52;;;7.50;;
49934;SDS011;39898;41.762;26.200;2023-09-07T06:27:06;12.43;;;7.93;;
49934;SDS011;39898;41.762;26.200;2023-09-07T06:29:32;19.17;;;7.28;;
49934;SDS011;39898;41.762;26.200;2023-09-07T06:31:59;11.68;;;6.72;;
49934;SDS011;39898;41.762;26.200;2023-09-07T06:34:27;10.70;;;7.05;;
49934;SDS011;39898;41.762;26.200;2023-09-07T06:36:53;16.55;;;6.57;;
49934;SDS011;39898;41.762;26.200;2023-09-07T06:39:20;16.08;;;6.55;;
49934;SDS011;39898;41.762;26.200;2023-09-07T06:41:47;20.00;;;6.65;;
49934;SDS011;39898;41.762;26.200;2023-09-07T06:44:14;12.40;;;6.47;;
49934;SDS011;39898;41.762;26.200;2023-09-07T06:46:42;11.35;;;6.15;;
49934;SDS011;39898;41.762;26.200;2023-09-07T06:49:09;16.60;;;6.18;;
49934;SDS011;39898;41.762;26.200;2023-09-07T06:51:36;13.07;;;6.13;;
49934;SDS011;39898;41.762;26.200;2023-09-07T06:54:02;15.70;;;6.05;;
49934;SDS011;39898;41.762;26.200;2023-09-07T06:56:30;9.25;;;6.10;;
49934;SDS011;39898;41.762;26.200;2023-09-07T06:58:58;12.65;;;6.40;;
49934;SDS011;39898;41.762;26.200;2023-09-07T07:01:25;13.23;;;5.93;;
49934;SDS011;39898;41.762;26.200;2023-09-07T07:03:51;13.32;;;5.00;;
49934;SDS011;39898;41.762;26.200;2023-09-07T07:06:19;14.00;;;5.53;;
49934;SDS011;39898;41.762;26.200;2023-09-07T07:08:46;14.30;;;4.68;;
49934;SDS011;39898;41.762;26.200;2023-09-07T07:11:13;10.57;;;5.78;;
49934;SDS011;39898;41.762;26.200;2023-09-07T07:13:39;13.68;;;4.97;;
49934;SDS011;39898;41.762;26.200;2023-09-07T07:16:06;5.97;;;4.25;;
49934;SDS011;39898;41.762;26.200;2023-09-07T07:18:32;15.05;;;4.78;;
49934;SDS011;39898;41.762;26.200;2023-09-07T07:20:59;12.52;;;4.40;;
49934;SDS011;39898;41.762;26.200;2023-09-07T07:23:26;9.88;;;4.45;;
49934;SDS011;39898;41.762;26.200;2023-09-07T07:25:53;11.43;;;5.07;;
49934;SDS011;39898;41.762;26.200;2023-09-07T07:28:19;8.35;;;4.07;;
49934;SDS011;39898;41.762;26.200;2023-09-07T07:30:46;10.23;;;5.05;;
49934;SDS011;39898;41.762;26.200;2023-09-07T07:33:14;8.00;;;5.40;;
49934;SDS011;39898;41.762;26.200;2023-09-07T07:35:41;13.85;;;9.40;;
49934;SDS011;39898;41.762;26.200;2023-09-07T07:38:07;7.80;;;5.25;;
49934;SDS011;39898;41.762;26.200;2023-09-07T07:40:34;9.02;;;5.07;;
49934;SDS011;39898;41.762;26.200;2023-09-07T07:43:01;12.20;;;5.35;;
49934;SDS011;39898;41.762;26.200;2023-09-07T07:45:29;11.90;;;4.60;;
49934;SDS011;39898;41.762;26.200;2023-09-07T07:47:56;8.13;;;4.10;;
49934;SDS011;39898;41.762;26.200;2023-09-07T07:50:22;6.63;;;4.50;;
49934;SDS011;39898;41.762;26.200;2023-09-07T07:52:49;5.22;;;4.22;;
49934;SDS011;39898;41.762;26.200;2023-09-07T07:55:16;9.70;;;4.35;;
49934;SDS011;39898;41.762;26.200;2023-09-07T07:57:42;9.43;;;4.88;;
49934;SDS011;39898;41.762;26.200;2023-09-07T08:00:09;6.55;;;4.35;;
49934;SDS011;39898;41.762;26.200;2023-09-07T08:02:36;15.55;;;4.38;;
49934;SDS011;39898;41.762;26.200;2023-09-07T08:05:02;11.65;;;4.97;;
49934;SDS011;39898;41.762;26.200;2023-09-07T08:07:29;8.40;;;4.50;;
49934;SDS011;39898;41.762;26.200;2023-09-07T08:09:56;11.02;;;5.35;;
49934;SDS011;39898;41.762;26.200;2023-09-07T08:12:22;12.75;;;4.65;;
49934;SDS011;39898;41.762;26.200;2023-09-07T08:14:49;8.85;;;5.05;;
49934;SDS011;39898;41.762;26.200;2023-09-07T08:17:15;13.88;;;5.97;;
49934;SDS011;39898;41.762;26.200;2023-09-07T08:19:42;11.57;;;5.95;;
49934;SDS011;39898;41.762;26.200;2023-09-07T08:22:10;20.60;;;8.85;;
49934;SDS011;39898;41.762;26.200;2023-09-07T08:24:36;7.63;;;4.60;;
49934;SDS011;39898;41.762;26.200;2023-09-07T08:27:03;9.35;;;4.95;;
49934;SDS011;39898;41.762;26.200;2023-09-07T08:29:30;15.52;;;8.93;;
49934;SDS011;39898;41.762;26.200;2023-09-07T08:31:59;7.75;;;5.30;;
49934;SDS011;39898;41.762;26.200;2023-09-07T08:34:30;12.52;;;5.68;;
49934;SDS011;39898;41.762;26.200;2023-09-07T08:36:57;6.93;;;5.07;;
49934;SDS011;39898;41.762;26.200;2023-09-07T08:39:26;10.35;;;6.43;;
49934;SDS011;39898;41.762;26.200;2023-09-07T08:41:52;14.48;;;6.28;;
49934;SDS011;39898;41.762;26.200;2023-09-07T08:44:28;15.73;;;9.60;;
49934;SDS011;39898;41.762;26.200;2023-09-07T08:46:55;13.85;;;5.05;;
49934;SDS011;39898;41.762;26.200;2023-09-07T08:49:21;10.38;;;4.45;;
49934;SDS011;39898;41.762;26.200;2023-09-07T08:51:49;14.35;;;5.22;;
49934;SDS011;39898;41.762;26.200;2023-09-07T08:54:16;19.63;;;5.93;;
49934;SDS011;39898;41.762;26.200;2023-09-07T08:56:44;12.68;;;5.20;;
49934;SDS011;39898;41.762;26.200;2023-09-07T08:59:11;8.67;;;4.57;;
49934;SDS011;39898;41.762;26.200;2023-09-07T09:01:37;15.52;;;5.18;;
49934;SDS011;39898;41.762;26.200;2023-09-07T09:04:04;7.72;;;4.40;;
49934;SDS011;39898;41.762;26.200;2023-09-07T09:06:31;10.00;;;5.37;;
49934;SDS011;39898;41.762;26.200;2023-09-07T09:08:58;10.38;;;4.43;;
49934;SDS011;39898;41.762;26.200;2023-09-07T09:11:24;5.57;;;4.45;;
49934;SDS011;39898;41.762;26.200;2023-09-07T09:13:52;15.93;;;5.10;;
49934;SDS011;39898;41.762;26.200;2023-09-07T09:16:19;11.48;;;4.60;;
49934;SDS011;39898;41.762;26.200;2023-09-07T09:18:54;11.38;;;4.63;;
49934;SDS011;39898;41.762;26.200;2023-09-07T09:21:22;9.88;;;4.88;;
49934;SDS011;39898;41.762;26.200;2023-09-07T09:23:50;8.43;;;4.93;;
49934;SDS011;39898;41.762;26.200;2023-09-07T09:26:17;7.85;;;4.78;;
49934;SDS011;39898;41.762;26.200;2023-09-07T09:28:44;8.23;;;5.07;;
49934;SDS011;39898;41.762;26.200;2023-09-07T09:31:11;6.03;;;4.25;;
49934;SDS011;39898;41.762;26.200;2023-09-07T09:33:41;12.73;;;3.85;;
49934;SDS011;39898;41.762;26.200;2023-09-07T09:36:08;13.35;;;4.90;;
49934;SDS011;39898;41.762;26.200;2023-09-07T09:38:35;9.35;;;4.97;;
49934;SDS011;39898;41.762;26.200;2023-09-07T09:41:03;9.70;;;4.53;;
49934;SDS011;39898;41.762;26.200;2023-09-07T09:43:30;11.88;;;4.95;;
49934;SDS011;39898;41.762;26.200;2023-09-07T09:45:57;12.80;;;4.57;;
49934;SDS011;39898;41.762;26.200;2023-09-07T09:48:27;11.70;;;5.13;;
49934;SDS011;39898;41.762;26.200;2023-09-07T09:50:54;8.60;;;4.90;;
49934;SDS011;39898;41.762;26.200;2023-09-07T09:53:20;13.63;;;5.30;;
49934;SDS011;39898;41.762;26.200;2023-09-07T09:55:49;10.95;;;5.00;;
49934;SDS011;39898;41.762;26.200;2023-09-07T09:58:16;12.10;;;4.32;;
49934;SDS011;39898;41.762;26.200;2023-09-07T10:00:43;10.70;;;4.20;;
49934;SDS011;39898;41.762;26.200;2023-09-07T10:03:31;10.15;;;4.57;;
49934;SDS011;39898;41.762;26.200;2023-09-07T10:06:10;11.07;;;4.97;;
49934;SDS011;39898;41.762;26.200;2023-09-07T10:08:38;10.68;;;4.70;;
49934;SDS011;39898;41.762;26.200;2023-09-07T10:11:08;14.65;;;4.95;;
49934;SDS011;39898;41.762;26.200;2023-09-07T10:13:37;8.85;;;4.57;;
49934;SDS011;39898;41.762;26.200;2023-09-07T10:16:04;19.23;;;4.30;;
49934;SDS011;39898;41.762;26.200;2023-09-07T10:18:35;14.38;;;5.20;;
49934;SDS011;39898;41.762;26.200;2023-09-07T10:23:36;8.48;;;4.20;;
49934;SDS011;39898;41.762;26.200;2023-09-07T10:26:03;11.32;;;4.53;;
49934;SDS011;39898;41.762;26.200;2023-09-07T10:28:32;11.15;;;4.70;;
49934;SDS011;39898;41.762;26.200;2023-09-07T10:31:04;10.70;;;4.60;;
49934;SDS011;39898;41.762;26.200;2023-09-07T10:33:31;10.88;;;3.97;;
49934;SDS011;39898;41.762;26.200;2023-09-07T10:35:59;14.88;;;4.38;;
49934;SDS011;39898;41.762;26.200;2023-09-07T10:38:26;13.30;;;5.03;;
49934;SDS011;39898;41.762;26.200;2023-09-07T10:40:56;14.77;;;4.38;;
49934;SDS011;39898;41.762;26.200;2023-09-07T10:43:30;8.95;;;4.15;;
49934;SDS011;39898;41.762;26.200;2023-09-07T10:45:58;8.77;;;4.70;;
49934;SDS011;39898;41.762;26.200;2023-09-07T10:50:52;7.93;;;4.63;;
49934;SDS011;39898;41.762;26.200;2023-09-07T10:53:52;11.23;;;4.53;;
49934;SDS011;39898;41.762;26.200;2023-09-07T10:56:11;8.93;;;4.50;;
49934;SDS011;39898;41.762;26.200;2023-09-07T10:58:38;7.47;;;4.05;;
49934;SDS011;39898;41.762;26.200;2023-09-07T11:01:10;8.57;;;4.35;;
49934;SDS011;39898;41.762;26.200;2023-09-07T11:03:41;10.10;;;4.20;;
49934;SDS011;39898;41.762;26.200;2023-09-07T11:06:15;11.15;;;4.53;;
49934;SDS011;39898;41.762;26.200;2023-09-07T11:08:43;20.27;;;5.32;;
49934;SDS011;39898;41.762;26.200;2023-09-07T11:11:10;9.95;;;4.40;;
49934;SDS011;39898;41.762;26.200;2023-09-07T11:13:37;8.88;;;5.13;;
49934;SDS011;39898;41.762;26.200;2023-09-07T11:16:06;9.55;;;4.15;;
49934;SDS011;39898;41.762;26.200;2023-09-07T11:18:33;13.20;;;4.72;;
49934;SDS011;39898;41.762;26.200;2023-09-07T11:21:02;14.27;;;4.60;;
49934;SDS011;39898;41.762;26.200;2023-09-07T11:23:30;14.15;;;4.90;;
49934;SDS011;39898;41.762;26.200;2023-09-07T11:26:05;9.27;;;4.97;;
49934;SDS011;39898;41.762;26.200;2023-09-07T11:28:32;8.63;;;4.47;;
49934;SDS011;39898;41.762;26.200;2023-09-07T11:30:58;7.97;;;4.53;;
49934;SDS011;39898;41.762;26.200;2023-09-07T11:33:26;11.52;;;4.10;;
49934;SDS011;39898;41.762;26.200;2023-09-07T11:35:53;10.18;;;4.15;;
49934;SDS011;39898;41.762;26.200;2023-09-07T11:38:23;16.80;;;4.55;;
49934;SDS011;39898;41.762;26.200;2023-09-07T11:40:49;9.30;;;4.05;;
49934;SDS011;39898;41.762;26.200;2023-09-07T11:43:16;10.02;;;4.50;;
49934;SDS011;39898;41.762;26.200;2023-09-07T11:45:45;17.33;;;4.75;;
49934;SDS011;39898;41.762;26.200;2023-09-07T11:48:12;16.27;;;5.50;;
49934;SDS011;39898;41.762;26.200;2023-09-07T11:50:39;7.60;;;5.13;;
49934;SDS011;39898;41.762;26.200;2023-09-07T11:53:06;10.68;;;4.50;;
49934;SDS011;39898;41.762;26.200;2023-09-07T11:55:33;14.80;;;5.20;;
49934;SDS011;39898;41.762;26.200;2023-09-07T11:58:01;10.50;;;4.70;;
49934;SDS011;39898;41.762;26.200;2023-09-07T12:00:28;11.93;;;5.05;;
49934;SDS011;39898;41.762;26.200;2023-09-07T12:02:56;9.10;;;4.45;;
49934;SDS011;39898;41.762;26.200;2023-09-07T12:05:22;10.85;;;4.85;;
49934;SDS011;39898;41.762;26.200;2023-09-07T12:07:49;11.55;;;4.82;;
49934;SDS011;39898;41.762;26.200;2023-09-07T12:10:16;14.90;;;5.38;;
49934;SDS011;39898;41.762;26.200;2023-09-07T12:12:43;16.75;;;4.50;;
49934;SDS011;39898;41.762;26.200;2023-09-07T12:15:12;10.73;;;5.25;;
49934;SDS011;39898;41.762;26.200;2023-09-07T12:17:39;8.63;;;5.03;;
49934;SDS011;39898;41.762;26.200;2023-09-07T12:20:06;8.18;;;4.97;;
49934;SDS011;39898;41.762;26.200;2023-09-07T12:22:37;9.93;;;5.40;;
49934;SDS011;39898;41.762;26.200;2023-09-07T12:25:07;14.15;;;4.57;;
49934;SDS011;39898;41.762;26.200;2023-09-07T12:27:44;11.23;;;5.10;;
49934;SDS011;39898;41.762;26.200;2023-09-07T12:30:18;13.65;;;4.95;;
49934;SDS011;39898;41.762;26.200;2023-09-07T12:32:47;9.60;;;5.10;;
49934;SDS011;39898;41.762;26.200;2023-09-07T12:35:13;9.63;;;4.97;;
49934;SDS011;39898;41.762;26.200;2023-09-07T12:37:42;11.15;;;4.93;;
49934;SDS011;39898;41.762;26.200;2023-09-07T12:40:09;15.20;;;5.95;;
49934;SDS011;39898;41.762;26.200;2023-09-07T12:42:40;7.55;;;4.80;;
49934;SDS011;39898;41.762;26.200;2023-09-07T12:45:11;9.98;;;5.57;;
49934;SDS011;39898;41.762;26.200;2023-09-07T12:47:38;9.98;;;5.43;;
49934;SDS011;39898;41.762;26.200;2023-09-07T12:50:06;9.55;;;5.88;;
49934;SDS011;39898;41.762;26.200;2023-09-07T12:52:33;11.15;;;4.93;;
49934;SDS011;39898;41.762;26.200;2023-09-07T12:55:02;15.63;;;5.47;;
49934;SDS011;39898;41.762;26.200;2023-09-07T12:57:29;8.57;;;5.10;;
49934;SDS011;39898;41.762;26.200;2023-09-07T12:59:56;8.30;;;5.25;;
49934;SDS011;39898;41.762;26.200;2023-09-07T13:02:23;9.13;;;5.03;;
49934;SDS011;39898;41.762;26.200;2023-09-07T13:04:50;13.98;;;5.38;;
49934;SDS011;39898;41.762;26.200;2023-09-07T13:07:16;14.10;;;5.38;;
49934;SDS011;39898;41.762;26.200;2023-09-07T13:12:11;12.63;;;5.63;;
49934;SDS011;39898;41.762;26.200;2023-09-07T13:14:38;11.10;;;5.75;;
49934;SDS011;39898;41.762;26.200;2023-09-07T13:17:04;14.98;;;5.80;;
49934;SDS011;39898;41.762;26.200;2023-09-07T13:19:31;10.75;;;4.95;;
49934;SDS011;39898;41.762;26.200;2023-09-07T13:21:58;9.88;;;5.50;;
49934;SDS011;39898;41.762;26.200;2023-09-07T13:24:25;11.93;;;6.10;;
49934;SDS011;39898;41.762;26.200;2023-09-07T13:26:52;14.80;;;5.53;;
49934;SDS011;39898;41.762;26.200;2023-09-07T13:29:18;15.25;;;6.07;;
49934;SDS011;39898;41.762;26.200;2023-09-07T13:31:45;11.10;;;5.45;;
49934;SDS011;39898;41.762;26.200;2023-09-07T13:34:12;13.75;;;5.32;;
49934;SDS011;39898;41.762;26.200;2023-09-07T13:36:38;14.05;;;5.60;;
49934;SDS011;39898;41.762;26.200;2023-09-07T13:39:05;8.85;;;5.00;;
49934;SDS011;39898;41.762;26.200;2023-09-07T13:41:31;14.55;;;5.85;;
49934;SDS011;39898;41.762;26.200;2023-09-07T13:43:58;13.93;;;5.97;;
49934;SDS011;39898;41.762;26.200;2023-09-07T13:46:25;12.43;;;5.00;;
49934;SDS011;39898;41.762;26.200;2023-09-07T13:48:52;11.23;;;5.40;;
49934;SDS011;39898;41.762;26.200;2023-09-07T13:51:19;11.27;;;5.53;;
49934;SDS011;39898;41.762;26.200;2023-09-07T13:53:45;8.82;;;4.72;;
49934;SDS011;39898;41.762;26.200;2023-09-07T13:56:12;13.27;;;5.30;;
49934;SDS011;39898;41.762;26.200;2023-09-07T13:58:39;7.13;;;5.10;;
49934;SDS011;39898;41.762;26.200;2023-09-07T14:01:06;17.95;;;5.25;;
49934;SDS011;39898;41.762;26.200;2023-09-07T14:03:32;13.18;;;4.82;;
49934;SDS011;39898;41.762;26.200;2023-09-07T14:06:00;8.18;;;5.00;;
49934;SDS011;39898;41.762;26.200;2023-09-07T14:08:27;10.30;;;4.35;;
49934;SDS011;39898;41.762;26.200;2023-09-07T14:10:53;11.18;;;5.68;;
49934;SDS011;39898;41.762;26.200;2023-09-07T14:13:20;18.10;;;6.25;;
49934;SDS011;39898;41.762;26.200;2023-09-07T14:15:46;8.10;;;5.05;;
49934;SDS011;39898;41.762;26.200;2023-09-07T14:18:13;9.88;;;5.32;;
49934;SDS011;39898;41.762;26.200;2023-09-07T14:20:40;10.30;;;4.57;;
49934;SDS011;39898;41.762;26.200;2023-09-07T14:23:08;9.23;;;4.95;;
49934;SDS011;39898;41.762;26.200;2023-09-07T14:25:35;7.18;;;4.40;;
49934;SDS011;39898;41.762;26.200;2023-09-07T14:28:01;9.50;;;4.78;;
49934;SDS011;39898;41.762;26.200;2023-09-07T14:30:28;12.23;;;5.10;;
49934;SDS011;39898;41.762;26.200;2023-09-07T14:32:55;14.97;;;5.40;;
49934;SDS011;39898;41.762;26.200;2023-09-07T14:35:22;12.10;;;5.40;;
49934;SDS011;39898;41.762;26.200;2023-09-07T14:37:48;10.43;;;5.45;;